Terminal Aerodrome Forecast
Issued by NWS Twin Cities, MN

Home | Current Version | Previous Version | Graphics & Text | Print | Product List | Glossary On
Versions: 1 2 3 4 5 6 7 8 9 10 11 12 13 14 15 16
000
FTUS43 KMPX 262345
TAFEAU
TAF
KEAU 262345Z 2700/2724 07012G17KT P6SM OVC030
      TEMPO 2700/2701 SCT030 OVC040
     FM270100 08010KT P6SM BKN040
     FM270600 08015G22KT P6SM SCT050 BKN150=

USA.gov is the U.S. government's official web portal to all federal, state and local government web resources and services.